sensor_id;sensor_type;location;lat;lon;timestamp;P1;durP1;ratioP1;P2;durP2;ratioP2
52320;SDS011;38261;54.090;13.382;2023-07-22T00:00:44;5.60;;;3.30;;
52320;SDS011;38261;54.090;13.382;2023-07-22T00:02:07;5.27;;;2.80;;
52320;SDS011;38261;54.090;13.382;2023-07-22T00:03:29;4.60;;;3.47;;
52320;SDS011;38261;54.090;13.382;2023-07-22T00:04:51;3.53;;;3.10;;
52320;SDS011;38261;54.090;13.382;2023-07-22T00:06:14;5.77;;;3.20;;
52320;SDS011;38261;54.090;13.382;2023-07-22T00:07:36;4.73;;;2.77;;
52320;SDS011;38261;54.090;13.382;2023-07-22T00:08:58;6.47;;;3.57;;
52320;SDS011;38261;54.090;13.382;2023-07-22T00:10:20;4.60;;;3.30;;
52320;SDS011;38261;54.090;13.382;2023-07-22T00:11:42;7.00;;;3.37;;
52320;SDS011;38261;54.090;13.382;2023-07-22T00:13:05;4.43;;;3.10;;
52320;SDS011;38261;54.090;13.382;2023-07-22T00:14:27;11.90;;;3.90;;
52320;SDS011;38261;54.090;13.382;2023-07-22T00:15:49;3.70;;;3.13;;
52320;SDS011;38261;54.090;13.382;2023-07-22T00:17:12;3.23;;;2.90;;
52320;SDS011;38261;54.090;13.382;2023-07-22T00:18:34;6.40;;;3.63;;
52320;SDS011;38261;54.090;13.382;2023-07-22T00:19:56;3.63;;;3.30;;
52320;SDS011;38261;54.090;13.382;2023-07-22T00:21:18;5.30;;;3.30;;
52320;SDS011;38261;54.090;13.382;2023-07-22T00:22:40;3.40;;;3.10;;
52320;SDS011;38261;54.090;13.382;2023-07-22T00:24:03;4.37;;;3.57;;
52320;SDS011;38261;54.090;13.382;2023-07-22T00:25:26;6.50;;;3.63;;
52320;SDS011;38261;54.090;13.382;2023-07-22T00:26:48;6.70;;;3.10;;
52320;SDS011;38261;54.090;13.382;2023-07-22T00:28:13;4.47;;;3.23;;
52320;SDS011;38261;54.090;13.382;2023-07-22T00:29:36;5.70;;;3.60;;
52320;SDS011;38261;54.090;13.382;2023-07-22T00:30:58;4.70;;;3.40;;
52320;SDS011;38261;54.090;13.382;2023-07-22T00:32:22;7.20;;;3.27;;
52320;SDS011;38261;54.090;13.382;2023-07-22T00:33:44;6.50;;;3.40;;
52320;SDS011;38261;54.090;13.382;2023-07-22T00:35:06;6.80;;;4.00;;
52320;SDS011;38261;54.090;13.382;2023-07-22T00:36:29;4.53;;;3.37;;
52320;SDS011;38261;54.090;13.382;2023-07-22T00:37:51;7.47;;;3.83;;
52320;SDS011;38261;54.090;13.382;2023-07-22T00:39:13;4.07;;;3.67;;
52320;SDS011;38261;54.090;13.382;2023-07-22T00:40:35;4.60;;;4.10;;
52320;SDS011;38261;54.090;13.382;2023-07-22T00:41:57;7.20;;;4.07;;
52320;SDS011;38261;54.090;13.382;2023-07-22T00:43:19;3.70;;;3.27;;
52320;SDS011;38261;54.090;13.382;2023-07-22T00:44:42;5.73;;;3.73;;
52320;SDS011;38261;54.090;13.382;2023-07-22T00:46:04;4.83;;;3.67;;
52320;SDS011;38261;54.090;13.382;2023-07-22T00:47:26;8.50;;;4.30;;
52320;SDS011;38261;54.090;13.382;2023-07-22T00:48:49;3.90;;;3.30;;
52320;SDS011;38261;54.090;13.382;2023-07-22T00:50:12;5.37;;;3.63;;
52320;SDS011;38261;54.090;13.382;2023-07-22T00:51:34;5.20;;;3.77;;
52320;SDS011;38261;54.090;13.382;2023-07-22T00:52:56;4.83;;;4.33;;
52320;SDS011;38261;54.090;13.382;2023-07-22T00:54:18;5.57;;;3.67;;
52320;SDS011;38261;54.090;13.382;2023-07-22T00:55:40;5.80;;;4.10;;
52320;SDS011;38261;54.090;13.382;2023-07-22T00:57:03;8.37;;;4.70;;
52320;SDS011;38261;54.090;13.382;2023-07-22T00:58:25;6.10;;;4.00;;
52320;SDS011;38261;54.090;13.382;2023-07-22T00:59:48;6.80;;;4.30;;
52320;SDS011;38261;54.090;13.382;2023-07-22T01:01:10;4.27;;;3.87;;
52320;SDS011;38261;54.090;13.382;2023-07-22T01:02:33;5.80;;;3.77;;
52320;SDS011;38261;54.090;13.382;2023-07-22T01:03:56;5.80;;;4.17;;
52320;SDS011;38261;54.090;13.382;2023-07-22T01:05:18;4.87;;;3.10;;
52320;SDS011;38261;54.090;13.382;2023-07-22T01:06:40;5.13;;;3.20;;
52320;SDS011;38261;54.090;13.382;2023-07-22T01:08:05;5.03;;;3.90;;
52320;SDS011;38261;54.090;13.382;2023-07-22T01:09:33;5.63;;;3.50;;
52320;SDS011;38261;54.090;13.382;2023-07-22T01:10:57;5.60;;;4.03;;
52320;SDS011;38261;54.090;13.382;2023-07-22T01:12:19;9.30;;;3.90;;
52320;SDS011;38261;54.090;13.382;2023-07-22T01:13:41;5.43;;;4.03;;
52320;SDS011;38261;54.090;13.382;2023-07-22T01:15:03;6.17;;;4.07;;
52320;SDS011;38261;54.090;13.382;2023-07-22T01:16:29;5.23;;;3.83;;
52320;SDS011;38261;54.090;13.382;2023-07-22T01:17:52;5.53;;;4.03;;
52320;SDS011;38261;54.090;13.382;2023-07-22T01:19:14;5.87;;;4.03;;
52320;SDS011;38261;54.090;13.382;2023-07-22T01:20:40;6.70;;;3.60;;
52320;SDS011;38261;54.090;13.382;2023-07-22T01:22:03;6.07;;;3.60;;
52320;SDS011;38261;54.090;13.382;2023-07-22T01:23:28;5.90;;;4.33;;
52320;SDS011;38261;54.090;13.382;2023-07-22T01:24:50;5.00;;;3.80;;
52320;SDS011;38261;54.090;13.382;2023-07-22T01:26:13;3.60;;;3.30;;
52320;SDS011;38261;54.090;13.382;2023-07-22T01:27:36;9.90;;;3.60;;
52320;SDS011;38261;54.090;13.382;2023-07-22T01:29:01;4.40;;;3.00;;
52320;SDS011;38261;54.090;13.382;2023-07-22T01:30:27;5.47;;;3.73;;
52320;SDS011;38261;54.090;13.382;2023-07-22T01:31:50;5.40;;;3.73;;
52320;SDS011;38261;54.090;13.382;2023-07-22T01:33:13;5.23;;;3.13;;
52320;SDS011;38261;54.090;13.382;2023-07-22T01:34:35;6.23;;;3.50;;
52320;SDS011;38261;54.090;13.382;2023-07-22T01:35:58;6.50;;;2.80;;
52320;SDS011;38261;54.090;13.382;2023-07-22T01:37:21;5.50;;;4.07;;
52320;SDS011;38261;54.090;13.382;2023-07-22T01:38:43;5.20;;;3.67;;
52320;SDS011;38261;54.090;13.382;2023-07-22T01:40:05;4.93;;;3.47;;
52320;SDS011;38261;54.090;13.382;2023-07-22T01:41:34;3.87;;;3.17;;
52320;SDS011;38261;54.090;13.382;2023-07-22T01:42:56;4.20;;;3.63;;
52320;SDS011;38261;54.090;13.382;2023-07-22T01:44:18;5.60;;;3.73;;
52320;SDS011;38261;54.090;13.382;2023-07-22T01:45:40;3.60;;;3.10;;
52320;SDS011;38261;54.090;13.382;2023-07-22T01:47:02;3.57;;;3.13;;
52320;SDS011;38261;54.090;13.382;2023-07-22T01:48:25;4.37;;;3.50;;
52320;SDS011;38261;54.090;13.382;2023-07-22T01:49:47;5.87;;;4.10;;
52320;SDS011;38261;54.090;13.382;2023-07-22T01:51:09;6.47;;;4.00;;
52320;SDS011;38261;54.090;13.382;2023-07-22T01:52:31;4.57;;;3.30;;
52320;SDS011;38261;54.090;13.382;2023-07-22T01:53:53;5.23;;;3.87;;
52320;SDS011;38261;54.090;13.382;2023-07-22T01:55:18;5.63;;;3.67;;
52320;SDS011;38261;54.090;13.382;2023-07-22T01:56:40;6.10;;;3.47;;
52320;SDS011;38261;54.090;13.382;2023-07-22T01:58:03;5.80;;;3.80;;
52320;SDS011;38261;54.090;13.382;2023-07-22T01:59:25;4.07;;;3.30;;
52320;SDS011;38261;54.090;13.382;2023-07-22T02:00:50;4.33;;;3.43;;
52320;SDS011;38261;54.090;13.382;2023-07-22T02:02:14;4.13;;;3.10;;
52320;SDS011;38261;54.090;13.382;2023-07-22T02:03:36;5.97;;;2.90;;
52320;SDS011;38261;54.090;13.382;2023-07-22T02:04:58;5.63;;;3.10;;
52320;SDS011;38261;54.090;13.382;2023-07-22T02:06:20;4.50;;;3.10;;
52320;SDS011;38261;54.090;13.382;2023-07-22T02:07:43;4.07;;;2.97;;
52320;SDS011;38261;54.090;13.382;2023-07-22T02:09:05;6.20;;;3.00;;
52320;SDS011;38261;54.090;13.382;2023-07-22T02:10:30;3.90;;;2.90;;
52320;SDS011;38261;54.090;13.382;2023-07-22T02:11:52;5.00;;;2.53;;
52320;SDS011;38261;54.090;13.382;2023-07-22T02:13:15;4.13;;;2.60;;
52320;SDS011;38261;54.090;13.382;2023-07-22T02:14:37;3.60;;;2.27;;
52320;SDS011;38261;54.090;13.382;2023-07-22T02:15:59;3.10;;;2.10;;
52320;SDS011;38261;54.090;13.382;2023-07-22T02:17:23;2.87;;;2.20;;
52320;SDS011;38261;54.090;13.382;2023-07-22T02:18:45;2.77;;;2.13;;
52320;SDS011;38261;54.090;13.382;2023-07-22T02:20:07;4.03;;;2.10;;
52320;SDS011;38261;54.090;13.382;2023-07-22T02:21:30;8.20;;;2.43;;
52320;SDS011;38261;54.090;13.382;2023-07-22T02:22:52;4.10;;;2.43;;
52320;SDS011;38261;54.090;13.382;2023-07-22T02:24:15;2.50;;;2.10;;
52320;SDS011;38261;54.090;13.382;2023-07-22T02:25:37;8.43;;;2.50;;
52320;SDS011;38261;54.090;13.382;2023-07-22T02:26:59;3.93;;;2.50;;
52320;SDS011;38261;54.090;13.382;2023-07-22T02:28:21;2.97;;;2.60;;
52320;SDS011;38261;54.090;13.382;2023-07-22T02:29:45;7.53;;;2.70;;
52320;SDS011;38261;54.090;13.382;2023-07-22T02:31:07;4.43;;;2.70;;
52320;SDS011;38261;54.090;13.382;2023-07-22T02:32:29;2.97;;;2.00;;
52320;SDS011;38261;54.090;13.382;2023-07-22T02:33:51;3.57;;;2.03;;
52320;SDS011;38261;54.090;13.382;2023-07-22T02:35:13;2.80;;;2.00;;
52320;SDS011;38261;54.090;13.382;2023-07-22T02:36:36;4.20;;;2.23;;
52320;SDS011;38261;54.090;13.382;2023-07-22T02:37:58;3.17;;;2.20;;
52320;SDS011;38261;54.090;13.382;2023-07-22T02:39:20;3.53;;;1.60;;
52320;SDS011;38261;54.090;13.382;2023-07-22T02:40:42;4.47;;;1.90;;
52320;SDS011;38261;54.090;13.382;2023-07-22T02:42:04;1.90;;;1.47;;
52320;SDS011;38261;54.090;13.382;2023-07-22T02:43:27;1.80;;;1.57;;
52320;SDS011;38261;54.090;13.382;2023-07-22T02:44:49;4.03;;;1.90;;
52320;SDS011;38261;54.090;13.382;2023-07-22T02:46:11;1.87;;;1.50;;
52320;SDS011;38261;54.090;13.382;2023-07-22T02:47:33;1.97;;;1.43;;
52320;SDS011;38261;54.090;13.382;2023-07-22T02:48:58;1.73;;;1.30;;
52320;SDS011;38261;54.090;13.382;2023-07-22T02:50:23;2.80;;;1.70;;
52320;SDS011;38261;54.090;13.382;2023-07-22T02:51:45;1.80;;;1.60;;
52320;SDS011;38261;54.090;13.382;2023-07-22T02:53:07;3.97;;;1.47;;
52320;SDS011;38261;54.090;13.382;2023-07-22T02:54:29;2.40;;;1.73;;
52320;SDS011;38261;54.090;13.382;2023-07-22T02:55:51;2.20;;;1.73;;
52320;SDS011;38261;54.090;13.382;2023-07-22T02:57:13;2.00;;;1.80;;
52320;SDS011;38261;54.090;13.382;2023-07-22T02:58:35;3.40;;;2.10;;
52320;SDS011;38261;54.090;13.382;2023-07-22T02:59:58;2.60;;;1.80;;
52320;SDS011;38261;54.090;13.382;2023-07-22T03:01:20;1.77;;;1.40;;
52320;SDS011;38261;54.090;13.382;2023-07-22T03:02:42;1.60;;;1.50;;
52320;SDS011;38261;54.090;13.382;2023-07-22T03:04:04;2.17;;;1.67;;
52320;SDS011;38261;54.090;13.382;2023-07-22T03:05:27;2.73;;;2.10;;
52320;SDS011;38261;54.090;13.382;2023-07-22T03:06:50;2.37;;;1.77;;
52320;SDS011;38261;54.090;13.382;2023-07-22T03:08:12;3.00;;;2.30;;
52320;SDS011;38261;54.090;13.382;2023-07-22T03:09:34;2.23;;;1.60;;
52320;SDS011;38261;54.090;13.382;2023-07-22T03:10:57;1.60;;;1.50;;
52320;SDS011;38261;54.090;13.382;2023-07-22T03:12:19;2.73;;;1.60;;
52320;SDS011;38261;54.090;13.382;2023-07-22T03:13:41;2.80;;;1.57;;
52320;SDS011;38261;54.090;13.382;2023-07-22T03:15:03;5.83;;;1.53;;
52320;SDS011;38261;54.090;13.382;2023-07-22T03:16:27;2.17;;;1.77;;
52320;SDS011;38261;54.090;13.382;2023-07-22T03:17:49;2.17;;;1.30;;
52320;SDS011;38261;54.090;13.382;2023-07-22T03:19:12;1.60;;;1.43;;
52320;SDS011;38261;54.090;13.382;2023-07-22T03:20:34;2.53;;;1.30;;
52320;SDS011;38261;54.090;13.382;2023-07-22T03:21:56;3.80;;;1.70;;
52320;SDS011;38261;54.090;13.382;2023-07-22T03:23:18;3.97;;;1.73;;
52320;SDS011;38261;54.090;13.382;2023-07-22T03:24:41;3.20;;;1.73;;
52320;SDS011;38261;54.090;13.382;2023-07-22T03:26:04;3.80;;;1.93;;
52320;SDS011;38261;54.090;13.382;2023-07-22T03:27:27;2.77;;;1.80;;
52320;SDS011;38261;54.090;13.382;2023-07-22T03:28:49;2.20;;;1.80;;
52320;SDS011;38261;54.090;13.382;2023-07-22T03:30:14;2.20;;;1.70;;
52320;SDS011;38261;54.090;13.382;2023-07-22T03:31:39;1.73;;;1.50;;
52320;SDS011;38261;54.090;13.382;2023-07-22T03:33:01;3.10;;;2.13;;
52320;SDS011;38261;54.090;13.382;2023-07-22T03:34:23;2.50;;;2.10;;
52320;SDS011;38261;54.090;13.382;2023-07-22T03:35:45;1.83;;;1.70;;
52320;SDS011;38261;54.090;13.382;2023-07-22T03:37:07;2.03;;;1.73;;
52320;SDS011;38261;54.090;13.382;2023-07-22T03:38:31;3.73;;;2.43;;
52320;SDS011;38261;54.090;13.382;2023-07-22T03:39:53;2.37;;;2.17;;
52320;SDS011;38261;54.090;13.382;2023-07-22T03:41:15;3.83;;;2.33;;
52320;SDS011;38261;54.090;13.382;2023-07-22T03:42:37;3.37;;;2.20;;
52320;SDS011;38261;54.090;13.382;2023-07-22T03:43:59;9.83;;;2.30;;
52320;SDS011;38261;54.090;13.382;2023-07-22T03:45:22;2.50;;;2.07;;
52320;SDS011;38261;54.090;13.382;2023-07-22T03:46:44;2.80;;;2.13;;
52320;SDS011;38261;54.090;13.382;2023-07-22T03:48:06;3.03;;;2.10;;
52320;SDS011;38261;54.090;13.382;2023-07-22T03:49:28;5.20;;;2.90;;
52320;SDS011;38261;54.090;13.382;2023-07-22T03:50:50;4.70;;;2.57;;
52320;SDS011;38261;54.090;13.382;2023-07-22T03:52:25;4.40;;;2.90;;
52320;SDS011;38261;54.090;13.382;2023-07-22T03:53:48;2.70;;;2.50;;
52320;SDS011;38261;54.090;13.382;2023-07-22T03:55:10;7.13;;;2.73;;
52320;SDS011;38261;54.090;13.382;2023-07-22T03:56:32;3.10;;;2.10;;
52320;SDS011;38261;54.090;13.382;2023-07-22T03:57:54;2.20;;;1.70;;
52320;SDS011;38261;54.090;13.382;2023-07-22T03:59:16;7.17;;;3.07;;
52320;SDS011;38261;54.090;13.382;2023-07-22T04:00:38;5.27;;;2.30;;
52320;SDS011;38261;54.090;13.382;2023-07-22T04:02:01;5.50;;;2.40;;
52320;SDS011;38261;54.090;13.382;2023-07-22T04:03:23;4.00;;;2.40;;
52320;SDS011;38261;54.090;13.382;2023-07-22T04:04:46;3.53;;;2.57;;
52320;SDS011;38261;54.090;13.382;2023-07-22T04:06:08;3.23;;;2.27;;
52320;SDS011;38261;54.090;13.382;2023-07-22T04:07:30;3.23;;;2.47;;
52320;SDS011;38261;54.090;13.382;2023-07-22T04:08:52;5.67;;;2.30;;
52320;SDS011;38261;54.090;13.382;2023-07-22T04:10:14;2.73;;;2.13;;
52320;SDS011;38261;54.090;13.382;2023-07-22T04:11:37;2.37;;;2.00;;
52320;SDS011;38261;54.090;13.382;2023-07-22T04:12:59;3.73;;;2.70;;
52320;SDS011;38261;54.090;13.382;2023-07-22T04:14:21;2.70;;;2.30;;
52320;SDS011;38261;54.090;13.382;2023-07-22T04:15:43;2.47;;;2.07;;
52320;SDS011;38261;54.090;13.382;2023-07-22T04:17:05;3.30;;;1.97;;
52320;SDS011;38261;54.090;13.382;2023-07-22T04:18:28;2.67;;;2.10;;
52320;SDS011;38261;54.090;13.382;2023-07-22T04:19:55;10.77;;;2.50;;
52320;SDS011;38261;54.090;13.382;2023-07-22T04:21:17;6.30;;;2.40;;
52320;SDS011;38261;54.090;13.382;2023-07-22T04:22:40;3.80;;;2.00;;
52320;SDS011;38261;54.090;13.382;2023-07-22T04:24:02;3.30;;;2.40;;
52320;SDS011;38261;54.090;13.382;2023-07-22T04:25:25;3.60;;;2.70;;
52320;SDS011;38261;54.090;13.382;2023-07-22T04:26:47;2.67;;;2.20;;
52320;SDS011;38261;54.090;13.382;2023-07-22T04:28:10;5.17;;;2.87;;
52320;SDS011;38261;54.090;13.382;2023-07-22T04:29:32;4.23;;;3.50;;
52320;SDS011;38261;54.090;13.382;2023-07-22T04:30:55;6.60;;;3.03;;
52320;SDS011;38261;54.090;13.382;2023-07-22T04:32:19;3.20;;;2.90;;
52320;SDS011;38261;54.090;13.382;2023-07-22T04:33:41;7.10;;;3.90;;
52320;SDS011;38261;54.090;13.382;2023-07-22T04:35:04;5.00;;;3.60;;
52320;SDS011;38261;54.090;13.382;2023-07-22T04:36:26;6.13;;;4.20;;
52320;SDS011;38261;54.090;13.382;2023-07-22T04:37:49;6.20;;;5.00;;
52320;SDS011;38261;54.090;13.382;2023-07-22T04:39:11;7.77;;;4.60;;
52320;SDS011;38261;54.090;13.382;2023-07-22T04:40:33;12.03;;;5.50;;
52320;SDS011;38261;54.090;13.382;2023-07-22T04:41:55;12.13;;;5.30;;
52320;SDS011;38261;54.090;13.382;2023-07-22T04:43:18;9.00;;;5.70;;
52320;SDS011;38261;54.090;13.382;2023-07-22T04:44:43;7.07;;;5.63;;
52320;SDS011;38261;54.090;13.382;2023-07-22T04:46:05;9.90;;;5.07;;
52320;SDS011;38261;54.090;13.382;2023-07-22T04:47:28;7.70;;;5.47;;
52320;SDS011;38261;54.090;13.382;2023-07-22T04:48:51;7.10;;;5.20;;
52320;SDS011;38261;54.090;13.382;2023-07-22T04:50:15;8.47;;;5.40;;
52320;SDS011;38261;54.090;13.382;2023-07-22T04:51:39;13.47;;;6.53;;
52320;SDS011;38261;54.090;13.382;2023-07-22T04:53:02;6.97;;;5.20;;
52320;SDS011;38261;54.090;13.382;2023-07-22T04:54:24;7.80;;;5.63;;
52320;SDS011;38261;54.090;13.382;2023-07-22T04:55:49;7.67;;;5.80;;
52320;SDS011;38261;54.090;13.382;2023-07-22T04:57:11;8.07;;;6.00;;
52320;SDS011;38261;54.090;13.382;2023-07-22T04:58:34;11.30;;;5.90;;
52320;SDS011;38261;54.090;13.382;2023-07-22T04:59:56;9.80;;;6.30;;
52320;SDS011;38261;54.090;13.382;2023-07-22T05:01:18;9.40;;;6.67;;
52320;SDS011;38261;54.090;13.382;2023-07-22T05:02:40;8.83;;;7.20;;
52320;SDS011;38261;54.090;13.382;2023-07-22T05:04:04;11.73;;;6.57;;
52320;SDS011;38261;54.090;13.382;2023-07-22T05:05:27;8.57;;;6.00;;
52320;SDS011;38261;54.090;13.382;2023-07-22T05:06:50;9.97;;;6.47;;
52320;SDS011;38261;54.090;13.382;2023-07-22T05:08:12;10.47;;;7.43;;
52320;SDS011;38261;54.090;13.382;2023-07-22T05:09:34;12.80;;;6.50;;
52320;SDS011;38261;54.090;13.382;2023-07-22T05:10:58;14.53;;;7.20;;
52320;SDS011;38261;54.090;13.382;2023-07-22T05:12:20;10.27;;;7.37;;
52320;SDS011;38261;54.090;13.382;2023-07-22T05:13:42;13.73;;;7.13;;
52320;SDS011;38261;54.090;13.382;2023-07-22T05:15:05;10.90;;;7.10;;
52320;SDS011;38261;54.090;13.382;2023-07-22T05:16:28;11.10;;;6.90;;
52320;SDS011;38261;54.090;13.382;2023-07-22T05:17:50;10.23;;;6.80;;
52320;SDS011;38261;54.090;13.382;2023-07-22T05:19:13;9.47;;;7.63;;
52320;SDS011;38261;54.090;13.382;2023-07-22T05:20:35;13.17;;;6.87;;
52320;SDS011;38261;54.090;13.382;2023-07-22T05:21:59;11.63;;;7.20;;
52320;SDS011;38261;54.090;13.382;2023-07-22T05:23:21;10.57;;;6.80;;
52320;SDS011;38261;54.090;13.382;2023-07-22T05:24:43;8.80;;;5.70;;
52320;SDS011;38261;54.090;13.382;2023-07-22T05:26:05;7.50;;;5.67;;
52320;SDS011;38261;54.090;13.382;2023-07-22T05:27:27;10.67;;;5.67;;
52320;SDS011;38261;54.090;13.382;2023-07-22T05:28:50;8.40;;;5.63;;
52320;SDS011;38261;54.090;13.382;2023-07-22T05:30:12;10.10;;;5.50;;
52320;SDS011;38261;54.090;13.382;2023-07-22T05:31:53;9.60;;;6.57;;
52320;SDS011;38261;54.090;13.382;2023-07-22T05:33:15;7.70;;;5.33;;
52320;SDS011;38261;54.090;13.382;2023-07-22T05:34:38;8.00;;;4.97;;
52320;SDS011;38261;54.090;13.382;2023-07-22T05:36:00;10.67;;;5.30;;
52320;SDS011;38261;54.090;13.382;2023-07-22T05:37:23;6.60;;;4.90;;
52320;SDS011;38261;54.090;13.382;2023-07-22T05:38:45;8.63;;;5.40;;
52320;SDS011;38261;54.090;13.382;2023-07-22T05:40:08;11.90;;;6.23;;
52320;SDS011;38261;54.090;13.382;2023-07-22T05:41:32;7.23;;;4.90;;
52320;SDS011;38261;54.090;13.382;2023-07-22T05:42:55;9.17;;;5.37;;
52320;SDS011;38261;54.090;13.382;2023-07-22T05:44:17;10.83;;;6.17;;
52320;SDS011;38261;54.090;13.382;2023-07-22T05:45:39;9.90;;;5.30;;
52320;SDS011;38261;54.090;13.382;2023-07-22T05:47:01;9.80;;;5.17;;
52320;SDS011;38261;54.090;13.382;2023-07-22T05:48:23;9.33;;;5.27;;
52320;SDS011;38261;54.090;13.382;2023-07-22T05:49:45;8.07;;;5.60;;
52320;SDS011;38261;54.090;13.382;2023-07-22T05:51:08;9.43;;;5.27;;
52320;SDS011;38261;54.090;13.382;2023-07-22T05:52:31;9.07;;;5.80;;
52320;SDS011;38261;54.090;13.382;2023-07-22T05:53:53;8.40;;;5.47;;
52320;SDS011;38261;54.090;13.382;2023-07-22T05:55:15;7.70;;;5.30;;
52320;SDS011;38261;54.090;13.382;2023-07-22T05:56:37;5.87;;;4.67;;
52320;SDS011;38261;54.090;13.382;2023-07-22T05:57:59;8.70;;;5.47;;
52320;SDS011;38261;54.090;13.382;2023-07-22T05:59:26;13.03;;;5.77;;
52320;SDS011;38261;54.090;13.382;2023-07-22T06:00:48;7.83;;;5.27;;
52320;SDS011;38261;54.090;13.382;2023-07-22T06:02:13;8.23;;;4.97;;
52320;SDS011;38261;54.090;13.382;2023-07-22T06:03:35;8.60;;;5.30;;
52320;SDS011;38261;54.090;13.382;2023-07-22T06:04:57;8.40;;;4.83;;
52320;SDS011;38261;54.090;13.382;2023-07-22T06:06:19;8.10;;;5.53;;
52320;SDS011;38261;54.090;13.382;2023-07-22T06:07:44;8.57;;;4.87;;
52320;SDS011;38261;54.090;13.382;2023-07-22T06:09:07;6.53;;;4.40;;
52320;SDS011;38261;54.090;13.382;2023-07-22T06:10:29;8.17;;;5.23;;
52320;SDS011;38261;54.090;13.382;2023-07-22T06:11:52;6.67;;;4.37;;
52320;SDS011;38261;54.090;13.382;2023-07-22T06:13:14;9.80;;;4.60;;
52320;SDS011;38261;54.090;13.382;2023-07-22T06:14:36;10.53;;;5.40;;
52320;SDS011;38261;54.090;13.382;2023-07-22T06:15:58;8.63;;;5.23;;
52320;SDS011;38261;54.090;13.382;2023-07-22T06:17:20;13.60;;;5.20;;
52320;SDS011;38261;54.090;13.382;2023-07-22T06:18:42;11.10;;;5.23;;
52320;SDS011;38261;54.090;13.382;2023-07-22T06:20:05;8.50;;;4.83;;
52320;SDS011;38261;54.090;13.382;2023-07-22T06:21:27;10.43;;;5.50;;
52320;SDS011;38261;54.090;13.382;2023-07-22T06:22:49;9.57;;;4.57;;
52320;SDS011;38261;54.090;13.382;2023-07-22T06:24:11;6.73;;;5.10;;
52320;SDS011;38261;54.090;13.382;2023-07-22T06:25:33;7.33;;;5.53;;
52320;SDS011;38261;54.090;13.382;2023-07-22T06:26:56;7.77;;;5.67;;
52320;SDS011;38261;54.090;13.382;2023-07-22T06:28:18;8.00;;;5.47;;
52320;SDS011;38261;54.090;13.382;2023-07-22T06:29:40;9.93;;;5.37;;
52320;SDS011;38261;54.090;13.382;2023-07-22T06:31:02;14.33;;;5.43;;
52320;SDS011;38261;54.090;13.382;2023-07-22T06:32:24;10.40;;;6.07;;
52320;SDS011;38261;54.090;13.382;2023-07-22T06:33:46;12.33;;;5.97;;
52320;SDS011;38261;54.090;13.382;2023-07-22T06:35:08;10.60;;;5.00;;
52320;SDS011;38261;54.090;13.382;2023-07-22T06:36:30;6.20;;;4.70;;
52320;SDS011;38261;54.090;13.382;2023-07-22T06:37:53;6.63;;;4.90;;
52320;SDS011;38261;54.090;13.382;2023-07-22T06:39:15;9.50;;;5.07;;
52320;SDS011;38261;54.090;13.382;2023-07-22T06:40:37;11.13;;;5.37;;
52320;SDS011;38261;54.090;13.382;2023-07-22T06:41:59;10.00;;;4.47;;
52320;SDS011;38261;54.090;13.382;2023-07-22T06:43:21;8.10;;;4.57;;
52320;SDS011;38261;54.090;13.382;2023-07-22T06:44:43;7.13;;;4.50;;
52320;SDS011;38261;54.090;13.382;2023-07-22T06:46:06;5.90;;;4.37;;
52320;SDS011;38261;54.090;13.382;2023-07-22T06:47:28;7.03;;;3.90;;
52320;SDS011;38261;54.090;13.382;2023-07-22T06:48:50;6.70;;;4.27;;
52320;SDS011;38261;54.090;13.382;2023-07-22T06:50:12;6.20;;;4.30;;
52320;SDS011;38261;54.090;13.382;2023-07-22T06:51:34;11.33;;;3.80;;
52320;SDS011;38261;54.090;13.382;2023-07-22T06:52:57;12.30;;;4.80;;
52320;SDS011;38261;54.090;13.382;2023-07-22T06:54:19;6.70;;;4.00;;
52320;SDS011;38261;54.090;13.382;2023-07-22T06:55:50;9.13;;;3.90;;
52320;SDS011;38261;54.090;13.382;2023-07-22T06:57:13;6.23;;;4.10;;
52320;SDS011;38261;54.090;13.382;2023-07-22T06:58:36;7.20;;;3.57;;
52320;SDS011;38261;54.090;13.382;2023-07-22T06:59:58;4.90;;;3.20;;
52320;SDS011;38261;54.090;13.382;2023-07-22T07:01:20;6.57;;;3.60;;
52320;SDS011;38261;54.090;13.382;2023-07-22T07:02:43;6.60;;;4.20;;
52320;SDS011;38261;54.090;13.382;2023-07-22T07:04:05;5.10;;;3.13;;
52320;SDS011;38261;54.090;13.382;2023-07-22T07:05:28;4.57;;;3.47;;
52320;SDS011;38261;54.090;13.382;2023-07-22T07:06:50;7.53;;;3.63;;
52320;SDS011;38261;54.090;13.382;2023-07-22T07:08:12;6.70;;;3.10;;
52320;SDS011;38261;54.090;13.382;2023-07-22T07:09:35;7.63;;;3.63;;
52320;SDS011;38261;54.090;13.382;2023-07-22T07:10:58;7.83;;;3.77;;
52320;SDS011;38261;54.090;13.382;2023-07-22T07:12:22;4.13;;;3.03;;
52320;SDS011;38261;54.090;13.382;2023-07-22T07:13:44;11.73;;;3.50;;
52320;SDS011;38261;54.090;13.382;2023-07-22T07:15:06;13.50;;;3.80;;
52320;SDS011;38261;54.090;13.382;2023-07-22T07:16:30;5.80;;;3.33;;
52320;SDS011;38261;54.090;13.382;2023-07-22T07:17:54;10.23;;;3.50;;
52320;SDS011;38261;54.090;13.382;2023-07-22T07:19:16;3.60;;;2.97;;
52320;SDS011;38261;54.090;13.382;2023-07-22T07:20:38;11.33;;;3.13;;
52320;SDS011;38261;54.090;13.382;2023-07-22T07:22:00;7.00;;;3.13;;
52320;SDS011;38261;54.090;13.382;2023-07-22T07:23:22;4.17;;;3.00;;
52320;SDS011;38261;54.090;13.382;2023-07-22T07:24:44;7.13;;;3.50;;
52320;SDS011;38261;54.090;13.382;2023-07-22T07:26:07;5.13;;;3.17;;
52320;SDS011;38261;54.090;13.382;2023-07-22T07:27:29;6.40;;;2.63;;
52320;SDS011;38261;54.090;13.382;2023-07-22T07:28:51;5.47;;;3.20;;
52320;SDS011;38261;54.090;13.382;2023-07-22T07:30:13;7.17;;;2.70;;
52320;SDS011;38261;54.090;13.382;2023-07-22T07:31:36;7.40;;;3.10;;
52320;SDS011;38261;54.090;13.382;2023-07-22T07:32:59;8.80;;;3.17;;
52320;SDS011;38261;54.090;13.382;2023-07-22T07:34:21;4.50;;;2.93;;
52320;SDS011;38261;54.090;13.382;2023-07-22T07:35:45;8.57;;;3.30;;
52320;SDS011;38261;54.090;13.382;2023-07-22T07:37:08;6.13;;;2.70;;
52320;SDS011;38261;54.090;13.382;2023-07-22T07:38:30;4.47;;;2.63;;
52320;SDS011;38261;54.090;13.382;2023-07-22T07:39:53;4.10;;;2.80;;
52320;SDS011;38261;54.090;13.382;2023-07-22T07:41:15;7.47;;;3.20;;
52320;SDS011;38261;54.090;13.382;2023-07-22T07:42:37;8.53;;;3.47;;
52320;SDS011;38261;54.090;13.382;2023-07-22T07:44:00;5.73;;;2.80;;
52320;SDS011;38261;54.090;13.382;2023-07-22T07:45:22;5.00;;;2.40;;
52320;SDS011;38261;54.090;13.382;2023-07-22T07:46:44;4.60;;;2.93;;
52320;SDS011;38261;54.090;13.382;2023-07-22T07:48:06;5.63;;;2.70;;
52320;SDS011;38261;54.090;13.382;2023-07-22T07:49:30;7.63;;;2.73;;
52320;SDS011;38261;54.090;13.382;2023-07-22T07:50:52;5.87;;;2.80;;
52320;SDS011;38261;54.090;13.382;2023-07-22T07:52:14;5.97;;;2.60;;
52320;SDS011;38261;54.090;13.382;2023-07-22T07:53:36;6.30;;;2.80;;
52320;SDS011;38261;54.090;13.382;2023-07-22T07:54:58;8.07;;;2.87;;
52320;SDS011;38261;54.090;13.382;2023-07-22T07:56:21;4.67;;;2.50;;
52320;SDS011;38261;54.090;13.382;2023-07-22T07:57:44;4.80;;;2.40;;
52320;SDS011;38261;54.090;13.382;2023-07-22T07:59:06;6.63;;;2.57;;
52320;SDS011;38261;54.090;13.382;2023-07-22T08:00:30;4.47;;;2.80;;
52320;SDS011;38261;54.090;13.382;2023-07-22T08:01:52;7.43;;;3.23;;
52320;SDS011;38261;54.090;13.382;2023-07-22T08:03:15;5.47;;;2.83;;
52320;SDS011;38261;54.090;13.382;2023-07-22T08:04:37;5.67;;;2.60;;
52320;SDS011;38261;54.090;13.382;2023-07-22T08:05:59;9.40;;;2.90;;
52320;SDS011;38261;54.090;13.382;2023-07-22T08:07:21;9.90;;;2.83;;
52320;SDS011;38261;54.090;13.382;2023-07-22T08:08:44;3.10;;;2.30;;
52320;SDS011;38261;54.090;13.382;2023-07-22T08:10:06;8.03;;;2.57;;